createdAt,value
2019-05-05T00:02:24.765Z,62.95
2019-05-05T00:05:19.229Z,63.08
2019-05-05T00:07:49.147Z,63.17
2019-05-05T00:10:27.477Z,63.07
2019-05-05T00:13:16.184Z,63.03
2019-05-05T00:16:04.653Z,62.98
2019-05-05T00:18:34.993Z,62.82
2019-05-05T00:21:04.794Z,62.27
2019-05-05T00:23:34.676Z,62.16
2019-05-05T00:26:04.753Z,62.17
2019-05-05T00:28:35.417Z,61.89
2019-05-05T00:31:05.075Z,61.63
2019-05-05T00:33:34.957Z,61.86
2019-05-05T00:36:07.687Z,61.77
2019-05-05T00:38:36.486Z,61.90
2019-05-05T00:41:06.602Z,61.96
2019-05-05T00:43:36.516Z,62.11
2019-05-05T00:46:12.437Z,62.51
2019-05-05T00:48:44.951Z,63.04
2019-05-05T00:51:15.169Z,63.72
2019-05-05T00:53:45.353Z,63.82
2019-05-05T00:56:15.324Z,64.26
2019-05-05T00:58:50.641Z,64.54
2019-05-05T01:01:38.088Z,64.82
2019-05-05T01:04:08.409Z,65.29
2019-05-05T01:06:38.213Z,65.33
2019-05-05T01:09:09.579Z,65.06
2019-05-05T01:11:39.755Z,65.28
2019-05-05T01:14:09.607Z,65.48
2019-05-05T01:16:39.728Z,65.54
2019-05-05T01:19:09.492Z,64.88
2019-05-05T01:21:39.353Z,64.94
2019-05-05T01:24:09.317Z,64.33
2019-05-05T01:26:39.292Z,64.48
2019-05-05T01:29:10.740Z,64.10
2019-05-05T01:31:40.850Z,63.75
2019-05-05T01:34:26.049Z,63.85
2019-05-05T01:37:05.041Z,63.84
2019-05-05T01:39:41.992Z,63.98
2019-05-05T01:42:15.877Z,64.39
2019-05-05T01:44:45.701Z,64.75
2019-05-05T01:47:15.823Z,64.95
2019-05-05T01:49:45.606Z,65.37
2019-05-05T01:52:15.421Z,65.60
2019-05-05T01:54:45.421Z,65.83
2019-05-05T01:57:15.572Z,66.24
2019-05-05T01:59:45.719Z,66.29
2019-05-05T02:02:15.663Z,66.98
2019-05-05T02:04:45.653Z,67.86
2019-05-05T02:07:15.670Z,68.83
2019-05-05T02:09:45.644Z,70.04
2019-05-05T02:12:16.067Z,70.38
2019-05-05T02:14:46.109Z,70.31
2019-05-05T02:17:16.454Z,69.96
2019-05-05T02:19:46.686Z,70.12
2019-05-05T02:22:16.381Z,69.84
2019-05-05T02:24:46.670Z,69.49
2019-05-05T02:27:19.599Z,69.75
2019-05-05T02:29:58.430Z,70.52
2019-05-05T02:32:47.297Z,70.93
2019-05-05T02:35:17.410Z,72.42
2019-05-05T02:37:47.722Z,73.37
2019-05-05T02:40:20.985Z,73.76
2019-05-05T02:42:54.715Z,73.81
2019-05-05T02:45:37.100Z,73.66
2019-05-05T02:48:15.754Z,73.15
2019-05-05T02:51:00.011Z,72.89
2019-05-05T02:53:41.873Z,72.71
2019-05-05T02:56:17.719Z,72.40
2019-05-05T02:58:48.885Z,71.57
2019-05-05T03:01:38.854Z,71.32
2019-05-05T03:04:09.873Z,71.12
2019-05-05T03:06:43.961Z,70.54
2019-05-05T03:09:15.201Z,70.18
2019-05-05T03:11:48.353Z,70.58
2019-05-05T03:14:19.978Z,71.12
2019-05-05T03:16:51.710Z,71.39
2019-05-05T03:19:24.192Z,70.86
2019-05-05T03:21:55.147Z,70.46
2019-05-05T03:24:25.451Z,70.29
2019-05-05T03:26:55.217Z,69.04
2019-05-05T03:29:27.039Z,69.11
2019-05-05T03:31:58.145Z,68.66
2019-05-05T03:34:28.520Z,69.08
2019-05-05T03:36:58.571Z,68.86
2019-05-05T03:39:31.071Z,68.43
2019-05-05T03:42:26.326Z,68.42
2019-05-05T03:44:59.184Z,68.39
2019-05-05T03:47:29.269Z,68.18
2019-05-05T03:49:59.081Z,68.45
2019-05-05T03:52:29.555Z,68.26
2019-05-05T03:55:00.699Z,68.03
2019-05-05T03:57:30.861Z,67.24
2019-05-05T04:00:00.742Z,66.33
2019-05-05T04:02:54.642Z,65.50
2019-05-05T04:05:30.299Z,65.42
2019-05-05T04:08:03.922Z,65.06
2019-05-05T04:10:34.502Z,64.37
2019-05-05T04:13:04.900Z,64.11
2019-05-05T04:15:35.798Z,63.92
2019-05-05T04:18:19.811Z,63.91
2019-05-05T04:20:49.540Z,63.72
2019-05-05T04:23:19.486Z,63.26
2019-05-05T04:25:49.369Z,63.27
2019-05-05T04:28:19.184Z,62.53
2019-05-05T04:30:48.903Z,62.73
2019-05-05T04:33:19.981Z,62.92
2019-05-05T04:35:49.873Z,62.23
2019-05-05T04:38:19.785Z,62.62
2019-05-05T04:40:50.975Z,60.21
2019-05-05T04:43:20.743Z,60.02
2019-05-05T04:45:50.577Z,60.14
2019-05-05T04:48:26.157Z,59.65
2019-05-05T04:51:20.715Z,59.16
2019-05-05T04:54:15.377Z,59.01
2019-05-05T04:56:45.112Z,58.17
2019-05-05T04:59:15.123Z,58.36
2019-05-05T05:01:45.761Z,58.67
2019-05-05T05:04:44.095Z,57.64
2019-05-05T05:07:15.270Z,56.70
2019-05-05T05:09:45.016Z,56.70
2019-05-05T05:12:14.844Z,55.80
2019-05-05T05:14:44.681Z,55.37
2019-05-05T05:17:20.023Z,54.74
2019-05-05T05:19:51.064Z,54.06
2019-05-05T05:22:20.961Z,53.84
2019-05-05T05:24:50.763Z,53.50
2019-05-05T05:27:20.541Z,53.62
2019-05-05T05:29:50.172Z,54.38
2019-05-05T05:32:20.026Z,54.49
2019-05-05T05:34:49.822Z,54.07
2019-05-05T05:37:20.957Z,53.08
2019-05-05T05:39:57.104Z,51.82
2019-05-05T05:42:26.856Z,51.92
2019-05-05T05:45:18.684Z,51.85
2019-05-05T05:48:14.385Z,51.55
2019-05-05T05:50:59.177Z,51.55
2019-05-05T05:53:28.914Z,51.16
2019-05-05T05:55:58.800Z,51.21
2019-05-05T05:58:28.612Z,51.16
2019-05-05T06:00:59.784Z,50.94
2019-05-05T06:03:29.656Z,50.89
2019-05-05T06:05:59.575Z,49.76
2019-05-05T06:08:30.040Z,50.08
2019-05-05T06:11:00.035Z,49.29
2019-05-05T06:13:31.079Z,49.29
2019-05-05T06:16:00.671Z,49.53
2019-05-05T06:18:30.501Z,49.60
2019-05-05T06:21:00.250Z,48.56
2019-05-05T06:23:30.014Z,48.78
2019-05-05T06:25:59.846Z,48.48
2019-05-05T06:28:29.771Z,49.01
2019-05-05T06:30:59.742Z,49.17
2019-05-05T06:33:29.588Z,48.95
2019-05-05T06:35:59.499Z,47.91
2019-05-05T06:38:30.799Z,48.68
2019-05-05T06:41:18.393Z,49.91
2019-05-05T06:44:10.216Z,49.43
2019-05-05T06:46:57.817Z,49.40
2019-05-05T06:49:31.145Z,49.07
2019-05-05T06:52:00.328Z,49.70
2019-05-05T06:54:30.065Z,49.57
2019-05-05T06:57:00.041Z,49.20
2019-05-05T06:59:30.002Z,48.47
2019-05-05T07:01:59.832Z,47.24
2019-05-05T07:04:29.720Z,46.14
2019-05-05T07:06:59.641Z,45.58
2019-05-05T07:09:29.611Z,45.77
2019-05-05T07:11:59.391Z,44.33
2019-05-05T07:14:29.081Z,44.57
2019-05-05T07:16:58.905Z,46.34
2019-05-05T07:19:28.817Z,46.64
2019-05-05T07:21:58.762Z,45.52
2019-05-05T07:24:28.653Z,44.38
2019-05-05T07:26:58.560Z,44.26
2019-05-05T07:29:29.650Z,43.50
2019-05-05T07:31:59.442Z,43.45
2019-05-05T07:34:47.437Z,42.88
2019-05-05T07:37:18.525Z,42.04
2019-05-05T07:39:48.682Z,42.85
2019-05-05T07:42:18.172Z,43.11
2019-05-05T07:44:47.663Z,44.02
2019-05-05T07:47:17.177Z,42.69
2019-05-05T07:49:46.675Z,43.11
2019-05-05T07:52:17.948Z,42.72
2019-05-05T07:54:47.733Z,41.69
2019-05-05T07:57:17.573Z,44.75
2019-05-05T07:59:47.303Z,43.52
2019-05-05T08:02:17.072Z,41.94
2019-05-05T08:04:47.050Z,41.13
2019-05-05T08:07:16.715Z,41.22
2019-05-05T08:09:46.494Z,41.50
2019-05-05T08:12:16.380Z,43.62
2019-05-05T08:14:46.261Z,43.91
2019-05-05T08:17:44.646Z,44.31
2019-05-05T08:20:19.402Z,43.43
2019-05-05T08:22:49.411Z,43.56
2019-05-05T08:25:40.954Z,43.19
2019-05-05T08:28:18.192Z,44.30
2019-05-05T08:31:01.200Z,43.27
2019-05-05T08:33:31.067Z,45.81
2019-05-05T08:36:00.882Z,45.90
2019-05-05T08:38:31.574Z,45.72
2019-05-05T08:41:01.372Z,45.91
2019-05-05T08:43:31.101Z,46.09
2019-05-05T08:46:00.818Z,46.51
2019-05-05T08:48:30.737Z,46.04
2019-05-05T08:51:00.575Z,46.34
2019-05-05T08:53:41.607Z,45.95
2019-05-05T08:56:03.963Z,46.47
2019-05-05T08:58:34.436Z,46.72
2019-05-05T09:01:04.599Z,45.68
2019-05-05T09:03:34.422Z,45.58
2019-05-05T09:06:04.786Z,45.04
2019-05-05T09:08:34.885Z,44.82
2019-05-05T09:11:04.999Z,44.20
2019-05-05T09:13:36.191Z,43.44
2019-05-05T09:16:06.050Z,42.32
2019-05-05T09:18:38.775Z,43.03
2019-05-05T09:21:08.609Z,43.99
2019-05-05T09:23:40.118Z,43.72
2019-05-05T09:26:31.925Z,44.36
2019-05-05T09:29:18.665Z,45.12
2019-05-05T09:31:48.622Z,46.71
2019-05-05T09:34:18.310Z,46.81
2019-05-05T09:36:48.223Z,47.22
2019-05-05T09:39:18.053Z,48.94
2019-05-05T09:41:47.989Z,50.17
2019-05-05T09:44:17.866Z,51.86
2019-05-05T09:46:47.883Z,53.09
2019-05-05T09:49:18.956Z,55.25
2019-05-05T09:51:49.317Z,56.23
2019-05-05T09:54:19.265Z,57.03
2019-05-05T09:56:50.309Z,56.94
2019-05-05T09:59:20.108Z,57.75
2019-05-05T10:01:49.827Z,59.18
2019-05-05T10:04:19.817Z,57.66
2019-05-05T10:06:49.578Z,58.33
2019-05-05T10:09:19.508Z,58.67
2019-05-05T10:11:49.385Z,58.15
2019-05-05T10:14:19.303Z,58.80
2019-05-05T10:16:49.184Z,57.36
2019-05-05T10:19:18.961Z,55.92
2019-05-05T10:21:48.870Z,54.63
2019-05-05T10:24:33.837Z,53.79
2019-05-05T10:27:04.919Z,52.17
2019-05-05T10:29:34.822Z,50.59
2019-05-05T10:32:04.934Z,48.70
2019-05-05T10:34:34.830Z,48.22
2019-05-05T10:37:04.905Z,45.46
2019-05-05T10:39:43.889Z,43.98
2019-05-05T10:42:14.471Z,43.36
2019-05-05T10:44:44.629Z,42.19
2019-05-05T10:47:14.464Z,42.97
2019-05-05T10:49:44.426Z,45.63
2019-05-05T10:52:14.478Z,44.95
2019-05-05T10:54:47.823Z,47.01
2019-05-05T10:57:18.541Z,48.33
2019-05-05T10:59:48.552Z,49.03
2019-05-05T11:02:19.813Z,47.03
2019-05-05T11:04:50.125Z,47.55
2019-05-05T11:07:20.029Z,46.83
2019-05-05T11:09:49.898Z,43.77
2019-05-05T11:12:19.755Z,41.43
2019-05-05T11:14:49.678Z,42.17
2019-05-05T11:17:19.735Z,41.61
2019-05-05T11:19:50.257Z,40.84
2019-05-05T11:22:20.145Z,40.83
2019-05-05T11:24:58.316Z,41.39
2019-05-05T11:27:21.408Z,40.50
2019-05-05T11:30:14.479Z,40.00
2019-05-05T11:33:03.857Z,39.50
2019-05-05T11:35:49.847Z,40.35
2019-05-05T11:38:19.747Z,40.88
2019-05-05T11:40:49.667Z,40.93
2019-05-05T11:43:20.933Z,41.53
2019-05-05T11:45:50.626Z,42.25
2019-05-05T11:48:20.469Z,42.70
2019-05-05T11:50:50.379Z,43.63
2019-05-05T11:53:21.537Z,45.37
2019-05-05T11:55:55.035Z,46.65
2019-05-05T11:58:25.168Z,44.63
2019-05-05T12:00:55.069Z,43.77
2019-05-05T12:03:24.928Z,43.32
2019-05-05T12:05:55.206Z,44.87
2019-05-05T12:08:25.005Z,45.66
2019-05-05T12:10:57.223Z,45.91
2019-05-05T12:13:26.918Z,45.26
2019-05-05T12:16:08.329Z,45.00
2019-05-05T12:18:38.176Z,44.96
2019-05-05T12:21:08.107Z,43.20
2019-05-05T12:23:39.167Z,42.89
2019-05-05T12:26:32.220Z,43.08
2019-05-05T12:29:20.948Z,43.34
2019-05-05T12:31:52.376Z,43.18
2019-05-05T12:34:23.620Z,41.96
2019-05-05T12:36:54.097Z,41.00
2019-05-05T12:39:23.838Z,37.38
2019-05-05T12:41:54.270Z,35.58
2019-05-05T12:44:34.000Z,37.25
2019-05-05T12:47:16.634Z,36.79
2019-05-05T12:49:47.779Z,38.00
2019-05-05T12:52:17.460Z,36.19
2019-05-05T12:54:47.367Z,33.64
2019-05-05T12:57:18.499Z,33.25
2019-05-05T12:59:48.231Z,34.51
2019-05-05T13:02:18.512Z,32.89
2019-05-05T13:04:48.159Z,32.17
2019-05-05T13:07:18.102Z,32.32
2019-05-05T13:09:47.957Z,31.82
2019-05-05T13:12:17.615Z,31.96
2019-05-05T13:14:47.529Z,32.67
2019-05-05T13:17:17.489Z,32.92
2019-05-05T13:20:06.246Z,34.06
2019-05-05T13:22:55.490Z,35.00
2019-05-05T13:25:56.755Z,33.15
2019-05-05T13:28:25.934Z,33.21
2019-05-05T13:30:55.835Z,33.39
2019-05-05T13:33:25.805Z,32.92
2019-05-05T13:35:55.667Z,32.91
2019-05-05T13:38:25.489Z,36.73
2019-05-05T13:40:55.344Z,40.78
2019-05-05T13:43:25.131Z,42.40
2019-05-05T13:46:03.592Z,45.43
2019-05-05T13:48:33.791Z,46.50
2019-05-05T13:51:04.984Z,47.40
2019-05-05T13:53:34.970Z,47.83
2019-05-05T13:56:11.779Z,48.60
2019-05-05T13:58:36.627Z,48.90
2019-05-05T14:01:09.587Z,49.00
2019-05-05T14:03:37.891Z,48.33
2019-05-05T14:06:07.790Z,48.42
2019-05-05T14:08:38.977Z,47.15
2019-05-05T14:11:08.745Z,43.87
2019-05-05T14:13:39.797Z,46.74
2019-05-05T14:16:09.611Z,48.45
2019-05-05T14:18:40.591Z,49.42
2019-05-05T14:21:10.367Z,49.50
2019-05-05T14:23:57.904Z,51.71
2019-05-05T14:26:28.522Z,54.99
2019-05-05T14:29:00.406Z,57.05
2019-05-05T14:31:36.375Z,55.28
2019-05-05T14:34:14.030Z,53.89
2019-05-05T14:37:01.403Z,56.47
2019-05-05T14:39:34.143Z,57.47
2019-05-05T14:42:04.543Z,57.64
2019-05-05T14:44:35.624Z,58.14
2019-05-05T14:47:05.433Z,58.36
2019-05-05T14:49:35.093Z,59.59
2019-05-05T14:52:05.090Z,59.75
2019-05-05T14:54:35.917Z,60.48
2019-05-05T14:57:07.280Z,60.52
2019-05-05T14:59:38.221Z,61.76
2019-05-05T15:02:08.111Z,63.36
2019-05-05T15:04:39.818Z,65.09
2019-05-05T15:07:14.957Z,64.86
2019-05-05T15:09:51.797Z,63.42
2019-05-05T15:12:44.668Z,58.26
2019-05-05T15:15:14.666Z,55.65
2019-05-05T15:17:44.424Z,54.42
2019-05-05T15:20:15.965Z,56.44
2019-05-05T15:22:45.748Z,57.67
2019-05-05T15:25:15.681Z,57.81
2019-05-05T15:27:45.549Z,57.33
2019-05-05T15:30:16.035Z,56.13
2019-05-05T15:32:45.851Z,57.67
2019-05-05T15:35:15.719Z,57.88
2019-05-05T15:37:45.686Z,59.03
2019-05-05T15:40:16.544Z,59.33
2019-05-05T15:42:46.427Z,60.17
2019-05-05T15:45:16.342Z,63.01
2019-05-05T15:47:46.212Z,65.31
2019-05-05T15:50:16.312Z,63.39
2019-05-05T15:52:46.115Z,63.77
2019-05-05T15:55:17.577Z,65.59
2019-05-05T15:57:48.738Z,68.01
2019-05-05T16:00:19.128Z,72.67
2019-05-05T16:02:49.196Z,74.04
2019-05-05T16:05:19.075Z,73.30
2019-05-05T16:07:48.863Z,73.30
2019-05-05T16:10:22.621Z,71.43
2019-05-05T16:12:53.830Z,73.13
2019-05-05T16:15:53.561Z,73.13
2019-05-05T16:18:32.864Z,72.91
2019-05-05T16:21:20.998Z,74.67
2019-05-05T16:23:54.870Z,77.54
2019-05-05T16:26:25.917Z,78.63
2019-05-05T16:28:55.693Z,80.38
2019-05-05T16:31:27.650Z,78.43
2019-05-05T16:33:57.217Z,78.50
2019-05-05T16:36:27.102Z,81.00
2019-05-05T16:38:56.957Z,82.66
2019-05-05T16:41:26.825Z,70.54
2019-05-05T16:43:56.674Z,64.35
2019-05-05T16:46:26.332Z,59.17
2019-05-05T16:48:56.157Z,56.81
2019-05-05T16:51:33.344Z,54.50
2019-05-05T16:54:06.369Z,51.95
2019-05-05T16:56:37.392Z,51.15
2019-05-05T16:59:07.408Z,52.42
2019-05-05T17:01:37.318Z,53.21
2019-05-05T17:04:11.057Z,54.95
2019-05-05T17:06:38.588Z,56.89
2019-05-05T17:09:08.608Z,57.57
2019-05-05T17:11:39.648Z,58.50
2019-05-05T17:14:28.330Z,60.33
2019-05-05T17:17:23.262Z,63.57
2019-05-05T17:19:59.503Z,65.93
2019-05-05T17:22:36.562Z,69.28
2019-05-05T17:25:08.875Z,71.83
2019-05-05T17:27:47.677Z,72.83
2019-05-05T17:30:11.651Z,74.44
2019-05-05T17:32:41.432Z,75.03
2019-05-05T17:35:11.457Z,73.77
2019-05-05T17:37:41.331Z,72.93
2019-05-05T17:40:24.127Z,73.60
2019-05-05T17:43:27.965Z,73.55
2019-05-05T17:46:04.591Z,73.72
2019-05-05T17:48:48.849Z,73.13
2019-05-05T17:51:26.027Z,72.99
2019-05-05T17:54:08.801Z,73.92
2019-05-05T17:56:38.554Z,70.03
2019-05-05T17:59:08.385Z,68.51
2019-05-05T18:01:38.389Z,67.80
2019-05-05T18:04:08.196Z,65.38
2019-05-05T18:06:48.979Z,64.89
2019-05-05T18:09:26.960Z,63.77
2019-05-05T18:12:23.474Z,63.32
2019-05-05T18:14:54.480Z,62.11
2019-05-05T18:17:25.419Z,60.82
2019-05-05T18:19:55.123Z,60.97
2019-05-05T18:22:24.945Z,59.62
2019-05-05T18:24:54.976Z,59.99
2019-05-05T18:27:24.882Z,58.91
2019-05-05T18:29:54.714Z,59.25
2019-05-05T18:32:25.868Z,60.20
2019-05-05T18:34:55.746Z,59.09
2019-05-05T18:37:25.778Z,57.64
2019-05-05T18:39:55.516Z,57.64
2019-05-05T18:42:25.579Z,56.27
2019-05-05T18:45:08.495Z,54.85
2019-05-05T18:47:38.342Z,54.85
2019-05-05T18:50:08.465Z,52.75
2019-05-05T18:52:38.181Z,52.25
2019-05-05T18:55:08.101Z,52.25
2019-05-05T18:57:39.130Z,51.87
2019-05-05T19:00:11.627Z,52.05
2019-05-05T19:02:53.579Z,52.93
2019-05-05T19:05:34.437Z,52.87
2019-05-05T19:08:25.916Z,53.76
2019-05-05T19:10:55.916Z,53.83
2019-05-05T19:13:26.898Z,53.90
2019-05-05T19:15:56.794Z,54.04
2019-05-05T19:18:26.598Z,54.29
2019-05-05T19:21:05.908Z,54.02
2019-05-05T19:23:35.731Z,54.05
2019-05-05T19:26:07.611Z,54.40
2019-05-05T19:28:44.387Z,54.81
2019-05-05T19:31:10.006Z,54.81
2019-05-05T19:33:39.829Z,54.90
2019-05-05T19:36:09.891Z,54.35
2019-05-05T19:38:39.669Z,54.42
2019-05-05T19:41:09.588Z,54.63
2019-05-05T19:43:54.918Z,55.25
2019-05-05T19:46:31.547Z,55.49
2019-05-05T19:49:19.157Z,59.57
2019-05-05T19:51:49.424Z,62.62
2019-05-05T19:54:19.027Z,65.21
2019-05-05T19:56:50.036Z,66.26
2019-05-05T19:59:19.983Z,66.40
2019-05-05T20:01:49.981Z,66.49
2019-05-05T20:04:19.817Z,67.40
2019-05-05T20:06:49.711Z,67.69
2019-05-05T20:09:20.874Z,67.76
2019-05-05T20:11:50.750Z,67.93
2019-05-05T20:14:20.663Z,67.97
2019-05-05T20:17:07.496Z,67.47
2019-05-05T20:19:43.767Z,68.21
2019-05-05T20:22:14.567Z,69.28
2019-05-05T20:24:44.848Z,68.83
2019-05-05T20:27:16.291Z,68.44
2019-05-05T20:29:46.078Z,69.07
2019-05-05T20:32:17.661Z,69.67
2019-05-05T20:35:06.268Z,69.92
2019-05-05T20:37:54.167Z,70.38
2019-05-05T20:40:26.450Z,70.67
2019-05-05T20:42:56.341Z,70.48
2019-05-05T20:45:28.635Z,70.02
2019-05-05T20:47:58.461Z,69.80
2019-05-05T20:50:28.449Z,69.80
2019-05-05T20:52:58.251Z,70.02
2019-05-05T20:55:28.176Z,71.12
2019-05-05T20:57:58.119Z,71.29
2019-05-05T21:00:27.994Z,70.99
2019-05-05T21:02:57.946Z,71.19
2019-05-05T21:05:27.728Z,71.19
2019-05-05T21:07:57.792Z,71.53
2019-05-05T21:10:27.582Z,71.38
2019-05-05T21:12:57.496Z,70.92
2019-05-05T21:15:27.459Z,71.67
2019-05-05T21:17:57.211Z,71.50
2019-05-05T21:20:27.136Z,70.92
2019-05-05T21:23:10.229Z,70.79
2019-05-05T21:25:44.393Z,70.97
2019-05-05T21:28:15.036Z,71.56
2019-05-05T21:30:44.809Z,71.90
2019-05-05T21:33:14.733Z,72.13
2019-05-05T21:35:44.494Z,72.16
2019-05-05T21:38:14.378Z,72.48
2019-05-05T21:40:44.265Z,72.30
2019-05-05T21:43:15.463Z,73.07
2019-05-05T21:45:45.130Z,73.78
2019-05-05T21:48:15.039Z,74.39
2019-05-05T21:50:51.103Z,74.37
2019-05-05T21:53:39.843Z,75.13
2019-05-05T21:56:28.370Z,76.21
2019-05-05T21:58:59.031Z,76.90
2019-05-05T22:01:31.001Z,76.03
2019-05-05T22:04:00.928Z,76.35
2019-05-05T22:06:30.811Z,76.62
2019-05-05T22:09:00.677Z,76.64
2019-05-05T22:11:30.598Z,76.44
2019-05-05T22:14:00.570Z,76.49
2019-05-05T22:16:30.440Z,76.43
2019-05-05T22:19:00.538Z,76.75
2019-05-05T22:21:47.571Z,76.75
2019-05-05T22:24:20.977Z,76.73
2019-05-05T22:26:50.745Z,77.43
2019-05-05T22:29:20.634Z,77.62
2019-05-05T22:31:50.414Z,78.30
2019-05-05T22:34:20.565Z,79.49
2019-05-05T22:36:50.582Z,79.91
2019-05-05T22:39:20.476Z,80.44
2019-05-05T22:41:50.284Z,80.94
2019-05-05T22:44:20.464Z,81.53
2019-05-05T22:46:50.306Z,82.06
2019-05-05T22:49:20.222Z,81.64
2019-05-05T22:51:50.206Z,81.89
2019-05-05T22:54:19.868Z,82.38
2019-05-05T22:56:49.714Z,82.53
2019-05-05T22:59:19.611Z,82.81
2019-05-05T23:01:49.422Z,83.60
2019-05-05T23:04:27.078Z,84.07
2019-05-05T23:07:00.809Z,83.96
2019-05-05T23:09:30.676Z,83.32
2019-05-05T23:12:00.487Z,83.79
2019-05-05T23:14:31.569Z,83.57
2019-05-05T23:17:20.112Z,82.74
2019-05-05T23:19:55.567Z,82.26
2019-05-05T23:22:44.418Z,81.95
2019-05-05T23:25:28.722Z,81.63
2019-05-05T23:27:59.866Z,79.67
2019-05-05T23:30:39.374Z,78.61
2019-05-05T23:33:02.155Z,77.78
2019-05-05T23:35:34.308Z,78.13
2019-05-05T23:38:03.934Z,77.56
2019-05-05T23:40:34.733Z,76.74
2019-05-05T23:43:04.615Z,76.15
2019-05-05T23:45:34.385Z,75.38
2019-05-05T23:48:04.396Z,74.87
2019-05-05T23:50:34.232Z,74.49
2019-05-05T23:53:04.023Z,74.68
2019-05-05T23:55:34.449Z,73.80
2019-05-05T23:58:04.294Z,73.47
